createdAt,value
2023-02-23T00:01:44.074Z,9.50
2023-02-23T00:04:12.029Z,9.50
2023-02-23T00:06:41.098Z,9.50
2023-02-23T00:09:22.647Z,9.50
2023-02-23T00:11:51.069Z,9.50
2023-02-23T00:14:19.232Z,9.50
2023-02-23T00:16:47.336Z,9.50
2023-02-23T00:19:15.442Z,9.50
2023-02-23T00:21:43.477Z,9.50
2023-02-23T00:24:15.606Z,9.50
2023-02-23T00:26:43.614Z,9.50
2023-02-23T00:29:17.182Z,9.40
2023-02-23T00:31:45.657Z,9.40
2023-02-23T00:34:15.910Z,9.50
2023-02-23T00:36:44.407Z,9.50
2023-02-23T00:39:21.635Z,9.50
2023-02-23T00:41:50.074Z,9.50
2023-02-23T00:44:18.079Z,9.50
2023-02-23T00:46:49.621Z,9.50
2023-02-23T00:49:17.905Z,9.40
2023-02-23T00:51:47.007Z,9.40
2023-02-23T00:54:17.832Z,9.40
2023-02-23T00:56:47.003Z,9.40
2023-02-23T00:59:15.981Z,9.40
2023-02-23T01:01:44.990Z,9.50
2023-02-23T01:04:14.175Z,9.50
2023-02-23T01:06:43.100Z,9.40
2023-02-23T01:09:13.839Z,9.40
2023-02-23T01:11:46.644Z,9.50
2023-02-23T01:14:15.817Z,9.50
2023-02-23T01:16:43.844Z,9.50
2023-02-23T01:19:13.541Z,9.40
2023-02-23T01:21:43.523Z,9.40
2023-02-23T01:24:13.889Z,9.40
2023-02-23T01:26:45.363Z,9.40
2023-02-23T01:29:15.968Z,9.40
2023-02-23T01:31:46.036Z,9.40
2023-02-23T01:34:18.207Z,9.60
2023-02-23T01:36:47.311Z,9.40
2023-02-23T01:39:17.797Z,9.40
2023-02-23T01:41:47.652Z,9.40
2023-02-23T01:44:53.748Z,9.40
2023-02-23T01:47:21.910Z,9.40
2023-02-23T01:49:50.956Z,9.40
2023-02-23T01:52:20.258Z,9.40
2023-02-23T01:54:53.250Z,9.40
2023-02-23T01:57:30.759Z,9.40
2023-02-23T01:59:59.737Z,9.40
2023-02-23T02:02:33.682Z,9.40
2023-02-23T02:05:08.055Z,9.40
2023-02-23T02:07:36.604Z,9.40
2023-02-23T02:10:22.790Z,9.40
2023-02-23T02:12:56.101Z,9.40
2023-02-23T02:15:30.199Z,9.40
2023-02-23T02:18:12.251Z,9.40
2023-02-23T02:21:13.595Z,9.40
2023-02-23T02:24:09.755Z,9.40
2023-02-23T02:26:48.851Z,9.40
2023-02-23T02:30:13.745Z,9.40
2023-02-23T02:33:26.917Z,9.30
2023-02-23T02:36:23.970Z,9.30
2023-02-23T02:38:59.276Z,9.30
2023-02-23T02:41:41.774Z,9.30
2023-02-23T02:44:16.656Z,9.30
2023-02-23T02:46:49.024Z,9.30
2023-02-23T02:49:24.269Z,9.30
2023-02-23T02:51:59.418Z,9.30
2023-02-23T02:54:33.668Z,9.30
2023-02-23T02:57:04.666Z,9.30
2023-02-23T03:00:00.463Z,9.30
2023-02-23T03:02:46.914Z,9.30
2023-02-23T03:05:33.372Z,9.30
2023-02-23T03:08:30.501Z,9.30
2023-02-23T03:11:21.795Z,9.30
2023-02-23T03:14:20.109Z,9.30
2023-02-23T03:17:14.962Z,9.30
2023-02-23T03:20:06.840Z,9.30
2023-02-23T03:22:58.243Z,9.30
2023-02-23T03:25:47.881Z,9.30
2023-02-23T03:28:40.977Z,9.30
2023-02-23T03:31:33.695Z,9.30
2023-02-23T03:34:29.143Z,9.30
2023-02-23T03:37:21.399Z,9.30
2023-02-23T03:40:13.078Z,9.20
2023-02-23T03:43:00.153Z,9.20
2023-02-23T03:45:48.486Z,9.20
2023-02-23T03:48:37.008Z,9.20
2023-02-23T03:51:27.071Z,9.20
2023-02-23T03:54:18.071Z,9.20
2023-02-23T03:57:07.032Z,9.20
2023-02-23T04:00:00.091Z,9.20
2023-02-23T04:02:47.929Z,9.20
2023-02-23T04:05:39.799Z,9.20
2023-02-23T04:08:30.326Z,9.30
2023-02-23T04:11:21.448Z,9.20
2023-02-23T04:13:54.408Z,9.20
2023-02-23T04:16:22.448Z,9.20
2023-02-23T04:18:51.940Z,9.10
2023-02-23T04:21:20.306Z,9.20
2023-02-23T04:23:48.871Z,9.10
2023-02-23T04:26:16.949Z,9.10
2023-02-23T04:28:44.957Z,9.10
2023-02-23T04:31:13.039Z,9.00
2023-02-23T04:33:41.081Z,9.00
2023-02-23T04:36:10.703Z,9.00
2023-02-23T04:38:38.686Z,9.00
2023-02-23T04:41:06.844Z,9.00
2023-02-23T04:43:34.869Z,9.00
2023-02-23T04:46:02.997Z,9.00
2023-02-23T04:48:30.945Z,9.00
2023-02-23T04:50:59.181Z,9.00
2023-02-23T04:53:28.548Z,9.00
2023-02-23T04:55:56.510Z,9.00
2023-02-23T04:58:24.750Z,9.00
2023-02-23T05:00:52.756Z,9.00
2023-02-23T05:03:20.770Z,9.00
2023-02-23T05:05:48.806Z,9.00
2023-02-23T05:08:16.893Z,9.10
2023-02-23T05:10:47.316Z,9.10
2023-02-23T05:13:16.264Z,9.00
2023-02-23T05:15:44.278Z,9.00
2023-02-23T05:18:12.310Z,9.00
2023-02-23T05:20:43.063Z,9.00
2023-02-23T05:23:11.028Z,8.90
2023-02-23T05:25:39.383Z,8.90
2023-02-23T05:28:08.849Z,8.90
2023-02-23T05:30:37.536Z,8.80
2023-02-23T05:33:05.617Z,8.80
2023-02-23T05:35:33.617Z,8.70
2023-02-23T05:38:01.606Z,8.70
2023-02-23T05:40:30.230Z,8.60
2023-02-23T05:43:01.162Z,8.60
2023-02-23T05:45:30.676Z,8.50
2023-02-23T05:47:58.786Z,8.50
2023-02-23T05:50:27.243Z,8.40
2023-02-23T05:52:55.236Z,8.40
2023-02-23T05:55:23.257Z,8.30
2023-02-23T05:57:51.648Z,8.30
2023-02-23T06:00:21.296Z,8.20
2023-02-23T06:02:52.380Z,8.20
2023-02-23T06:05:20.448Z,8.30
2023-02-23T06:07:48.406Z,8.30
2023-02-23T06:10:16.438Z,8.30
2023-02-23T06:12:44.503Z,8.30
2023-02-23T06:15:12.744Z,8.40
2023-02-23T06:17:40.673Z,8.40
2023-02-23T06:20:11.837Z,8.40
2023-02-23T06:22:39.858Z,8.40
2023-02-23T06:25:12.560Z,8.40
2023-02-23T06:27:40.733Z,8.50
2023-02-23T06:30:12.212Z,8.60
2023-02-23T06:32:40.617Z,8.50
2023-02-23T06:35:13.789Z,8.60
2023-02-23T06:37:41.983Z,8.60
2023-02-23T06:40:11.247Z,8.60
2023-02-23T06:42:42.126Z,8.60
2023-02-23T06:45:11.453Z,8.70
2023-02-23T06:47:40.003Z,8.70
2023-02-23T06:50:08.775Z,8.70
2023-02-23T06:52:38.265Z,8.70
2023-02-23T06:55:07.717Z,8.80
2023-02-23T06:57:35.770Z,8.80
2023-02-23T07:00:04.717Z,8.80
2023-02-23T07:02:32.869Z,8.80
2023-02-23T07:05:00.879Z,8.80
2023-02-23T07:07:29.173Z,8.90
2023-02-23T07:09:58.481Z,9.00
2023-02-23T07:12:26.816Z,9.10
2023-02-23T07:14:54.884Z,9.10
2023-02-23T07:17:22.935Z,9.10
2023-02-23T07:19:50.984Z,9.10
2023-02-23T07:22:19.268Z,9.20
2023-02-23T07:24:48.227Z,9.30
2023-02-23T07:27:17.593Z,9.30
2023-02-23T07:29:45.543Z,9.40
2023-02-23T07:32:13.602Z,9.40
2023-02-23T07:34:41.695Z,9.50
2023-02-23T07:37:09.968Z,9.50
2023-02-23T07:39:37.992Z,9.60
2023-02-23T07:42:06.085Z,9.60
2023-02-23T07:44:35.416Z,9.70
2023-02-23T07:47:03.467Z,9.70
2023-02-23T07:49:32.800Z,9.70
2023-02-23T07:52:00.906Z,9.80
2023-02-23T07:54:28.919Z,9.80
2023-02-23T07:56:56.909Z,9.80
2023-02-23T07:59:24.951Z,9.90
2023-02-23T08:01:54.585Z,9.80
2023-02-23T08:04:22.586Z,9.80
2023-02-23T08:06:50.591Z,9.80
2023-02-23T08:09:19.172Z,9.80
2023-02-23T08:11:47.212Z,9.80
2023-02-23T08:14:15.415Z,9.70
2023-02-23T08:16:43.523Z,9.80
2023-02-23T08:19:13.022Z,9.70
2023-02-23T08:21:43.221Z,9.90
2023-02-23T08:24:11.684Z,10.00
2023-02-23T08:26:39.716Z,10.10
2023-02-23T08:29:07.945Z,10.20
2023-02-23T08:31:36.378Z,10.20
2023-02-23T08:34:04.494Z,10.30
2023-02-23T08:36:33.974Z,10.30
2023-02-23T08:39:02.351Z,10.40
2023-02-23T08:41:30.590Z,10.40
2023-02-23T08:43:59.928Z,10.60
2023-02-23T08:46:28.059Z,10.80
2023-02-23T08:48:57.017Z,11.00
2023-02-23T08:51:25.255Z,11.10
2023-02-23T08:53:57.154Z,11.20
2023-02-23T08:56:26.930Z,11.30
2023-02-23T08:58:54.942Z,11.30
2023-02-23T09:01:23.093Z,11.20
2023-02-23T09:03:51.470Z,11.20
2023-02-23T09:06:22.369Z,11.20
2023-02-23T09:08:50.828Z,11.10
2023-02-23T09:11:20.512Z,11.10
2023-02-23T09:13:48.707Z,11.20
2023-02-23T09:16:17.200Z,11.20
2023-02-23T09:18:45.367Z,11.30
2023-02-23T09:21:18.962Z,11.40
2023-02-23T09:23:48.326Z,11.40
2023-02-23T09:26:17.794Z,11.40
2023-02-23T09:28:47.612Z,11.40
2023-02-23T09:31:18.917Z,11.30
2023-02-23T09:33:47.677Z,11.30
2023-02-23T09:36:17.466Z,11.40
2023-02-23T09:38:46.553Z,11.40
2023-02-23T09:41:56.643Z,11.50
2023-02-23T09:44:38.143Z,11.50
2023-02-23T09:47:16.528Z,11.60
2023-02-23T09:49:47.756Z,11.70
2023-02-23T09:52:20.024Z,11.70
2023-02-23T09:54:48.599Z,11.80
2023-02-23T09:57:22.571Z,11.80
2023-02-23T09:59:52.142Z,11.90
2023-02-23T10:02:30.080Z,12.00
2023-02-23T10:05:03.562Z,12.10
2023-02-23T10:07:43.494Z,12.10
2023-02-23T10:10:24.120Z,12.20
2023-02-23T10:13:00.629Z,12.20
2023-02-23T10:15:37.126Z,12.30
2023-02-23T10:18:13.491Z,12.40
2023-02-23T10:20:50.850Z,12.40
2023-02-23T10:23:25.093Z,12.40
2023-02-23T10:25:58.568Z,12.40
2023-02-23T10:28:27.625Z,12.50
2023-02-23T10:30:57.734Z,12.50
2023-02-23T10:33:32.087Z,12.60
2023-02-23T10:36:13.789Z,12.70
2023-02-23T10:38:42.050Z,12.70
2023-02-23T10:41:14.617Z,12.90
2023-02-23T10:43:43.247Z,12.90
2023-02-23T10:46:21.613Z,13.10
2023-02-23T10:48:51.312Z,13.10
2023-02-23T10:51:24.396Z,13.10
2023-02-23T10:53:52.866Z,13.10
2023-02-23T10:56:23.455Z,12.90
2023-02-23T10:58:53.069Z,12.90
2023-02-23T11:01:41.917Z,12.80
2023-02-23T11:04:22.017Z,12.80
2023-02-23T11:06:52.996Z,12.80
2023-02-23T11:09:41.900Z,12.80
2023-02-23T11:12:22.692Z,12.90
2023-02-23T11:14:51.731Z,12.90
2023-02-23T11:17:31.348Z,12.90
2023-02-23T11:20:02.733Z,13.00
2023-02-23T11:22:37.229Z,13.00
2023-02-23T11:25:16.850Z,13.00
2023-02-23T11:27:51.333Z,13.00
2023-02-23T11:30:24.432Z,13.10
2023-02-23T11:32:56.762Z,13.10
2023-02-23T11:35:31.644Z,13.10
2023-02-23T11:38:00.253Z,13.00
2023-02-23T11:40:31.548Z,13.00
2023-02-23T11:43:08.882Z,13.00
2023-02-23T11:45:45.613Z,13.00
2023-02-23T11:54:23.810Z,13.10
2023-02-23T11:56:55.318Z,13.30
2023-02-23T11:59:30.929Z,13.30
2023-02-23T12:02:07.468Z,13.40
2023-02-23T12:04:38.560Z,13.40
2023-02-23T12:07:31.519Z,13.60
2023-02-23T12:10:06.510Z,13.50
2023-02-23T12:12:45.145Z,13.40
2023-02-23T12:15:23.629Z,13.50
2023-02-23T12:17:58.223Z,13.40
2023-02-23T12:20:30.320Z,13.30
2023-02-23T12:23:04.667Z,13.30
2023-02-23T12:25:39.772Z,13.30
2023-02-23T12:28:19.167Z,13.30
2023-02-23T12:30:52.107Z,13.20
2023-02-23T12:33:30.166Z,13.10
2023-02-23T12:36:02.942Z,13.00
2023-02-23T12:38:41.548Z,13.00
2023-02-23T12:41:14.939Z,13.00
2023-02-23T12:43:51.469Z,13.00
2023-02-23T12:46:23.128Z,13.00
2023-02-23T12:48:58.308Z,13.20
2023-02-23T12:51:32.553Z,13.10
2023-02-23T12:54:02.254Z,13.30
2023-02-23T12:56:58.313Z,13.30
2023-02-23T13:00:20.358Z,13.30
2023-02-23T13:02:54.051Z,13.30
2023-02-23T13:05:26.957Z,13.20
2023-02-23T13:08:12.862Z,13.20
2023-02-23T13:10:51.389Z,13.20
2023-02-23T13:13:30.932Z,13.10
2023-02-23T13:16:07.369Z,13.10
2023-02-23T13:18:39.726Z,13.00
2023-02-23T13:21:17.871Z,13.00
2023-02-23T13:23:57.430Z,12.90
2023-02-23T13:26:34.364Z,12.90
2023-02-23T13:29:07.167Z,12.90
2023-02-23T13:31:37.972Z,12.80
2023-02-23T13:34:13.352Z,12.90
2023-02-23T13:36:43.483Z,12.90
2023-02-23T13:39:47.764Z,13.00
2023-02-23T13:42:34.198Z,13.00
2023-02-23T13:45:23.730Z,13.10
2023-02-23T13:47:57.925Z,13.10
2023-02-23T13:50:31.401Z,13.20
2023-02-23T13:53:04.958Z,13.20
2023-02-23T13:55:54.944Z,13.30
2023-02-23T13:58:30.140Z,13.30
2023-02-23T14:01:10.577Z,13.20
2023-02-23T14:03:47.282Z,13.10
2023-02-23T14:06:18.685Z,13.10
2023-02-23T14:08:54.087Z,13.10
2023-02-23T14:11:45.801Z,13.10
2023-02-23T14:14:37.141Z,13.10
2023-02-23T14:17:50.497Z,13.00
2023-02-23T14:20:41.160Z,13.10
2023-02-23T14:23:40.508Z,13.20
2023-02-23T14:26:43.466Z,13.20
2023-02-23T14:29:27.480Z,13.20
2023-02-23T14:31:58.626Z,13.30
2023-02-23T14:34:51.677Z,13.30
2023-02-23T14:37:26.293Z,13.20
2023-02-23T14:39:58.979Z,13.10
2023-02-23T14:42:30.110Z,13.00
2023-02-23T14:45:04.761Z,13.00
2023-02-23T14:47:43.693Z,13.00
2023-02-23T14:50:17.980Z,13.10
2023-02-23T14:52:46.659Z,13.20
2023-02-23T14:55:22.677Z,13.20
2023-02-23T14:57:52.435Z,13.10
2023-02-23T15:00:24.944Z,12.90
2023-02-23T15:02:59.326Z,12.90
2023-02-23T15:05:30.376Z,12.80
2023-02-23T15:08:01.231Z,12.70
2023-02-23T15:10:33.917Z,12.70
2023-02-23T15:13:08.532Z,12.70
2023-02-23T15:15:45.385Z,12.70
2023-02-23T15:18:22.954Z,12.70
2023-02-23T15:20:51.686Z,12.60
2023-02-23T15:23:21.308Z,12.60
2023-02-23T15:25:51.110Z,12.60
2023-02-23T15:28:25.368Z,12.60
2023-02-23T15:30:57.021Z,12.60
2023-02-23T15:33:28.323Z,12.60
2023-02-23T15:36:02.469Z,12.60
2023-02-23T15:38:43.762Z,12.50
2023-02-23T15:41:30.201Z,12.60
2023-02-23T15:44:07.580Z,12.60
2023-02-23T15:46:37.522Z,12.60
2023-02-23T15:49:07.062Z,12.60
2023-02-23T15:51:38.604Z,12.50
2023-02-23T15:54:14.388Z,12.50
2023-02-23T15:59:40.192Z,12.40
2023-02-23T16:02:17.804Z,12.30
2023-02-23T16:04:48.719Z,12.20
2023-02-23T16:07:19.435Z,12.20
2023-02-23T16:09:55.327Z,12.20
2023-02-23T16:12:26.043Z,12.20
2023-02-23T16:14:58.052Z,12.10
2023-02-23T16:17:31.288Z,12.10
2023-02-23T16:20:11.541Z,12.00
2023-02-23T16:22:40.875Z,12.00
2023-02-23T16:25:13.824Z,12.00
2023-02-23T16:27:44.245Z,11.90
2023-02-23T16:30:23.311Z,11.90
2023-02-23T16:33:04.810Z,11.80
2023-02-23T16:35:38.056Z,11.80
2023-02-23T16:38:13.991Z,11.70
2023-02-23T16:40:42.308Z,11.70
2023-02-23T16:43:10.881Z,11.60
2023-02-23T16:45:41.534Z,11.60
2023-02-23T16:48:14.566Z,11.60
2023-02-23T16:50:42.817Z,11.60
2023-02-23T16:53:12.410Z,11.50
2023-02-23T16:55:51.924Z,11.40
2023-02-23T16:58:23.124Z,11.40
2023-02-23T17:00:51.909Z,11.40
2023-02-23T17:03:24.199Z,11.30
2023-02-23T17:05:52.731Z,11.30
2023-02-23T17:08:21.173Z,11.30
2023-02-23T17:10:50.665Z,11.30
2023-02-23T17:13:19.850Z,11.20
2023-02-23T17:15:51.722Z,11.20
2023-02-23T17:20:51.692Z,11.10
2023-02-23T17:23:21.763Z,11.20
2023-02-23T17:25:50.048Z,11.10
2023-02-23T17:28:18.203Z,11.20
2023-02-23T17:30:47.243Z,11.10
2023-02-23T17:33:15.982Z,11.10
2023-02-23T17:35:46.036Z,11.00
2023-02-23T17:38:14.853Z,11.00
2023-02-23T17:40:44.060Z,11.00
2023-02-23T17:43:12.405Z,11.00
2023-02-23T17:45:40.510Z,11.00
2023-02-23T17:48:08.529Z,11.00
2023-02-23T17:50:36.543Z,10.90
2023-02-23T17:53:05.951Z,10.80
2023-02-23T17:55:33.941Z,10.80
2023-02-23T17:58:01.872Z,10.70
2023-02-23T18:00:29.848Z,10.70
2023-02-23T18:02:57.839Z,10.60
2023-02-23T18:05:25.894Z,10.60
2023-02-23T18:07:53.918Z,10.70
2023-02-23T18:10:25.342Z,10.60
2023-02-23T18:12:53.793Z,10.60
2023-02-23T18:15:23.951Z,10.60
2023-02-23T18:20:56.870Z,10.60
2023-02-23T18:23:26.050Z,10.70
2023-02-23T18:25:56.163Z,10.60
2023-02-23T18:28:24.439Z,10.70
2023-02-23T18:30:52.593Z,10.70
2023-02-23T18:33:20.715Z,10.70
2023-02-23T18:35:48.747Z,10.70
2023-02-23T18:38:17.058Z,10.60
2023-02-23T18:40:45.117Z,10.60
2023-02-23T18:43:15.311Z,10.60
2023-02-23T18:45:43.265Z,10.60
2023-02-23T18:48:13.488Z,10.70
2023-02-23T18:50:41.496Z,10.60
2023-02-23T18:53:10.962Z,10.80
2023-02-23T18:55:40.847Z,10.70
2023-02-23T18:58:08.995Z,10.70
2023-02-23T19:00:43.304Z,10.70
2023-02-23T19:03:12.598Z,10.70
2023-02-23T19:05:45.814Z,10.70
2023-02-23T19:08:16.634Z,10.70
2023-02-23T19:10:44.608Z,10.70
2023-02-23T19:13:12.697Z,10.70
2023-02-23T19:15:42.928Z,10.70
2023-02-23T19:18:10.869Z,10.70
2023-02-23T19:20:38.834Z,10.70
2023-02-23T19:23:07.990Z,10.70
2023-02-23T19:25:35.981Z,10.70
2023-02-23T19:28:04.164Z,10.70
2023-02-23T19:30:32.321Z,10.70
2023-02-23T19:33:01.809Z,10.70
2023-02-23T19:35:29.924Z,10.70
2023-02-23T19:37:58.800Z,10.70
2023-02-23T19:40:30.619Z,10.70
2023-02-23T19:42:58.592Z,10.70
2023-02-23T19:45:26.867Z,10.70
2023-02-23T19:47:55.308Z,10.60
2023-02-23T19:50:24.665Z,10.60
2023-02-23T19:52:52.665Z,10.60
2023-02-23T19:55:21.074Z,10.60
2023-02-23T19:57:49.036Z,10.50
2023-02-23T20:00:17.857Z,10.50
2023-02-23T20:03:01.084Z,10.60
2023-02-23T20:05:31.199Z,10.50
2023-02-23T20:07:59.275Z,10.50
2023-02-23T20:10:29.019Z,10.50
2023-02-23T20:12:57.060Z,10.50
2023-02-23T20:15:25.070Z,10.50
2023-02-23T20:17:53.324Z,10.50
2023-02-23T20:20:25.463Z,10.50
2023-02-23T20:22:55.623Z,10.50
2023-02-23T20:25:24.563Z,10.40
2023-02-23T20:27:52.535Z,10.40
2023-02-23T20:30:21.379Z,10.40
2023-02-23T20:32:49.875Z,10.40
2023-02-23T20:35:19.409Z,10.40
2023-02-23T20:37:47.403Z,10.40
2023-02-23T20:40:18.513Z,10.40
2023-02-23T20:42:48.800Z,10.40
2023-02-23T20:45:19.241Z,10.30
2023-02-23T20:47:51.774Z,10.30
2023-02-23T20:50:21.480Z,10.30
2023-02-23T20:52:50.209Z,10.30
2023-02-23T20:55:19.806Z,10.20
2023-02-23T20:57:48.852Z,10.20
2023-02-23T21:00:24.089Z,10.10
2023-02-23T21:02:55.467Z,10.10
2023-02-23T21:05:25.260Z,10.10
2023-02-23T21:07:54.012Z,10.10
2023-02-23T21:10:23.407Z,10.10
2023-02-23T21:12:53.009Z,10.00
2023-02-23T21:15:21.109Z,10.00
2023-02-23T21:17:50.495Z,9.90
2023-02-23T21:20:20.964Z,9.90
2023-02-23T21:22:50.176Z,9.90
2023-02-23T21:25:20.343Z,9.90
2023-02-23T21:27:50.737Z,9.80
2023-02-23T21:30:21.889Z,9.80
2023-02-23T21:32:51.673Z,9.80
2023-02-23T21:35:20.955Z,9.70
2023-02-23T21:37:51.156Z,9.70
2023-02-23T21:40:21.227Z,9.60
2023-02-23T21:42:51.732Z,9.60
2023-02-23T21:45:20.631Z,9.60
2023-02-23T21:47:49.312Z,9.60
2023-02-23T21:50:19.563Z,9.60
2023-02-23T21:52:48.632Z,9.60
2023-02-23T21:55:22.056Z,9.50
2023-02-23T21:57:52.849Z,9.50
2023-02-23T22:00:22.728Z,9.50
2023-02-23T22:02:51.458Z,9.50
2023-02-23T22:05:20.349Z,9.50
2023-02-23T22:07:49.784Z,9.50
2023-02-23T22:10:18.776Z,9.50
2023-02-23T22:12:46.978Z,9.50
2023-02-23T22:15:16.879Z,9.50
2023-02-23T22:17:45.149Z,9.50
2023-02-23T22:20:13.855Z,9.50
2023-02-23T22:22:42.889Z,9.40
2023-02-23T22:25:11.621Z,9.40
2023-02-23T22:27:41.752Z,9.40
2023-02-23T22:30:12.169Z,9.30
2023-02-23T22:32:42.795Z,9.30
2023-02-23T22:35:11.820Z,9.20
2023-02-23T22:37:40.065Z,9.30
2023-02-23T22:40:13.499Z,9.20
2023-02-23T22:42:43.581Z,9.20
2023-02-23T22:45:12.642Z,9.20
2023-02-23T22:47:42.012Z,9.10
2023-02-23T22:50:14.026Z,9.20
2023-02-23T22:52:43.040Z,9.10
2023-02-23T22:55:13.094Z,9.00
2023-02-23T22:57:41.556Z,9.10
2023-02-23T23:00:11.345Z,9.10
2023-02-23T23:02:40.799Z,9.00
2023-02-23T23:05:09.798Z,9.00
2023-02-23T23:07:37.734Z,9.00
2023-02-23T23:10:09.212Z,9.00
2023-02-23T23:12:37.956Z,9.00
2023-02-23T23:15:14.545Z,8.90
2023-02-23T23:17:48.080Z,8.90
2023-02-23T23:20:18.022Z,8.90
2023-02-23T23:22:46.170Z,8.80
2023-02-23T23:25:15.701Z,8.80
2023-02-23T23:27:45.762Z,8.80
2023-02-23T23:30:15.359Z,8.80
2023-02-23T23:32:45.214Z,8.70
2023-02-23T23:35:13.474Z,8.70
2023-02-23T23:37:41.533Z,8.70
2023-02-23T23:40:14.567Z,8.70
2023-02-23T23:42:45.905Z,8.70
2023-02-23T23:45:16.206Z,8.70
2023-02-23T23:47:46.095Z,8.70
2023-02-23T23:50:16.167Z,8.70
2023-02-23T23:52:46.923Z,8.70
2023-02-23T23:55:19.186Z,8.70
2023-02-23T23:57:47.850Z,8.70
